Time;durP1;ratioP1;P1;durP2;ratioP2;P2;SDS_P1;SDS_P2;PMS_P1;PMS_P2;Temp;Humidity;BMP_temperature;BMP_pressure;BME280_temperature;BME280_humidity;BME280_pressure;Samples;Min_cycle;Max_cycle;Signal;HPM_P1;HPM_P2
2022/01/11 00:00:10;;;;;;;21.67;11.93;;;;;;;-0.83;87.83;100723.22;4990279;28;20241;-91
2022/01/11 00:02:41;;;;;;;18.23;11.10;;;;;;;-0.90;88.00;100724.06;4977854;28;20198;-91
2022/01/11 00:05:07;;;;;;;30.77;13.60;;;;;;;-0.95;88.04;100730.94;4991154;28;20216;-90
2022/01/11 00:07:35;;;;;;;21.55;12.63;;;;;;;-0.99;88.28;100721.50;4983935;28;20345;-91
2022/01/11 00:10:06;;;;;;;19.50;14.40;;;;;;;-1.00;88.22;100727.50;4987684;28;20871;-89
2022/01/11 00:12:32;;;;;;;17.83;11.77;;;;;;;-1.00;88.27;100725.81;4989142;28;20202;-92
2022/01/11 00:15:00;;;;;;;28.38;14.15;;;;;;;-0.99;88.27;100729.22;4987718;28;20651;-91
2022/01/11 00:17:26;;;;;;;21.57;10.67;;;;;;;-0.96;88.55;100721.50;4982970;28;20361;-91
2022/01/11 00:19:51;;;;;;;24.00;11.87;;;;;;;-0.92;88.75;100711.19;4984041;28;20761;-90
2022/01/11 00:22:25;;;;;;;30.00;14.50;;;;;;;-0.89;88.67;100712.91;4985507;28;20281;-92
2022/01/11 00:24:53;;;;;;;21.67;13.98;;;;;;;-0.86;88.52;100710.34;4985709;28;20211;-91
2022/01/11 00:27:19;;;;;;;17.75;13.20;;;;;;;-0.85;88.59;100706.03;4975703;28;20243;-91
2022/01/11 00:29:50;;;;;;;16.67;10.55;;;;;;;-0.85;88.79;100701.72;4989451;28;20213;-91
2022/01/11 00:32:32;;;;;;;58.60;21.30;;;;;;;-0.72;88.73;100708.63;5001436;28;20594;-91
2022/01/11 00:35:27;;;;;;;23.08;14.52;;;;;;;-0.74;88.58;100709.47;4987396;28;20527;-90
2022/01/11 00:37:54;;;;;;;23.40;12.93;;;;;;;-0.75;88.65;100703.47;4990540;28;20212;-91
2022/01/11 00:40:20;;;;;;;23.80;12.77;;;;;;;-0.74;88.65;100710.31;4988294;28;20207;-90
2022/01/11 00:42:46;;;;;;;26.52;13.52;;;;;;;-0.75;88.37;100713.78;4994640;28;20237;-90
2022/01/11 00:45:16;;;;;;;16.90;12.50;;;;;;;-0.75;88.40;100713.78;5004286;28;20220;-91
2022/01/11 00:47:42;;;;;;;16.40;11.52;;;;;;;-0.74;88.48;100715.47;4993642;28;20227;-91
2022/01/11 00:50:10;;;;;;;18.27;11.00;;;;;;;-0.77;88.50;100712.91;5000827;28;20284;-91
2022/01/11 00:52:36;;;;;;;15.90;12.10;;;;;;;-0.83;88.21;100712.91;4992167;28;20211;-91
2022/01/11 00:55:01;;;;;;;16.53;12.60;;;;;;;-0.87;88.33;100713.75;4987409;28;20310;-91
2022/01/11 00:57:27;;;;;;;20.63;10.57;;;;;;;-0.88;88.42;100716.34;5008613;28;20643;-90
2022/01/11 00:59:53;;;;;;;13.37;9.47;;;;;;;-0.88;88.56;100721.50;4993163;28;20199;-91
2022/01/11 01:02:20;;;;;;;13.90;10.80;;;;;;;-0.89;88.45;100720.66;4991832;28;20226;-90
2022/01/11 01:04:45;;;;;;;19.33;9.85;;;;;;;-0.86;88.75;100727.50;4990793;28;20298;-91
2022/01/11 01:07:11;;;;;;;23.88;11.60;;;;;;;-0.86;88.51;100722.34;4991403;28;20234;-90
2022/01/11 01:12:40;;;;;;;28.75;11.32;;;;;;;-0.88;88.25;100722.38;4997183;28;20698;-91
2022/01/11 01:15:06;;;;;;;15.23;11.43;;;;;;;-0.89;88.43;100720.66;4986072;28;20199;-91
2022/01/11 01:17:33;;;;;;;37.42;11.63;;;;;;;-0.93;88.36;100724.94;4985142;28;20469;-90
2022/01/11 01:19:59;;;;;;;52.67;16.97;;;;;;;-0.95;88.12;100728.38;4990083;28;20230;-91
2022/01/11 01:22:24;;;;;;;30.80;11.23;;;;;;;-1.03;88.11;100718.03;4989618;28;20545;-91
2022/01/11 01:24:50;;;;;;;29.40;12.70;;;;;;;-1.09;88.17;100722.34;4992242;28;20736;-91
2022/01/11 01:27:17;;;;;;;15.48;10.27;;;;;;;-1.20;87.83;100724.88;4991523;28;20232;-91
2022/01/11 01:29:43;;;;;;;20.83;11.20;;;;;;;-1.24;88.22;100723.16;4993542;28;20392;-91
2022/01/11 01:32:12;;;;;;;24.43;11.23;;;;;;;-1.29;88.35;100732.59;4989910;28;20203;-91
2022/01/11 01:34:40;;;;;;;21.98;12.65;;;;;;;-1.34;88.32;100727.44;4992115;28;20490;-91
2022/01/11 01:37:07;;;;;;;22.65;11.45;;;;;;;-1.43;88.37;100730.84;4987016;28;20704;-90
2022/01/11 01:39:34;;;;;;;17.95;11.82;;;;;;;-1.50;88.63;100734.25;4983892;28;20208;-91
2022/01/11 01:42:05;;;;;;;27.05;12.30;;;;;;;-1.54;88.92;100727.34;4990773;28;20507;-91
2022/01/11 01:44:33;;;;;;;24.02;11.82;;;;;;;-1.54;88.74;100729.94;4980056;28;20254;-91
2022/01/11 01:46:59;;;;;;;33.97;18.42;;;;;;;-1.56;88.82;100732.50;4993338;28;20216;-91
2022/01/11 01:49:25;;;;;;;28.58;12.45;;;;;;;-1.59;88.32;100734.22;4999933;28;20744;-91
2022/01/11 01:51:51;;;;;;;23.27;10.65;;;;;;;-1.64;88.54;100733.34;4987125;28;20695;-91
2022/01/11 01:54:17;;;;;;;14.05;9.75;;;;;;;-1.66;88.72;100740.19;4993306;28;20226;-91
2022/01/11 01:56:44;;;;;;;17.45;9.40;;;;;;;-1.67;88.76;100739.34;5001175;28;20867;-91
2022/01/11 01:59:10;;;;;;;14.95;9.80;;;;;;;-1.65;88.51;100745.34;4991660;28;20211;-91
2022/01/11 02:01:43;;;;;;;29.20;15.03;;;;;;;-1.59;88.70;100727.34;5004992;28;20498;-90
2022/01/11 02:04:10;;;;;;;37.33;14.00;;;;;;;-1.57;88.45;100735.06;5001800;28;20481;-91
2022/01/11 02:06:36;;;;;;;28.02;13.93;;;;;;;-1.59;88.86;100735.09;4966774;28;20210;-91
2022/01/11 02:09:03;;;;;;;67.47;11.48;;;;;;;-1.60;88.40;100735.91;4994229;28;20866;-90
2022/01/11 02:11:31;;;;;;;26.33;10.82;;;;;;;-1.59;88.57;100739.38;4982555;28;20207;-91
2022/01/11 02:13:59;;;;;;;69.57;16.05;;;;;;;-1.58;88.61;100738.50;5002932;28;20209;-91
2022/01/11 02:16:25;;;;;;;18.93;11.30;;;;;;;-1.58;88.63;100733.34;4986997;28;21174;-91
2022/01/11 02:18:56;;;;;;;49.22;13.13;;;;;;;-1.59;88.73;100737.66;4989824;28;20214;-90
2022/01/11 02:21:23;;;;;;;15.02;9.82;;;;;;;-1.54;88.50;100739.38;4987823;28;20704;-91
2022/01/11 02:23:50;;;;;;;20.15;12.43;;;;;;;-1.52;88.99;100735.09;5008255;28;20194;-90
2022/01/11 02:26:17;;;;;;;16.00;9.43;;;;;;;-1.48;88.64;100740.28;4995678;28;20245;-91
2022/01/11 02:28:43;;;;;;;14.77;10.33;;;;;;;-1.44;88.54;100738.56;4993489;28;20206;-91
2022/01/11 02:31:14;;;;;;;18.90;11.40;;;;;;;-1.41;88.49;100746.28;4997559;28;20285;-91
2022/01/11 02:33:46;;;;;;;33.05;14.73;;;;;;;-1.37;88.82;100748.03;4993140;28;20203;-91
2022/01/11 02:36:31;;;;;;;18.92;9.95;;;;;;;-1.34;88.55;100745.47;5008885;28;20199;-91
2022/01/11 02:39:04;;;;;;;14.88;9.55;;;;;;;-1.35;88.28;100742.03;4989536;28;20732;-91
2022/01/11 02:41:30;;;;;;;28.65;13.65;;;;;;;-1.35;88.34;100743.72;5003035;28;20219;-91
2022/01/11 02:44:01;;;;;;;20.45;10.25;;;;;;;-1.34;88.45;100748.06;4993776;28;20223;-91
2022/01/11 02:46:28;;;;;;;15.07;9.90;;;;;;;-1.35;88.57;100746.31;4990621;28;20672;-90
2022/01/11 02:48:56;;;;;;;21.77;10.65;;;;;;;-1.35;88.30;100746.31;4990145;28;20211;-91
2022/01/11 02:51:25;;;;;;;12.07;10.18;;;;;;;-1.37;88.29;100748.91;5005750;28;20266;-92
2022/01/11 02:53:58;;;;;;;12.23;9.35;;;;;;;-1.38;88.04;100751.47;4999085;28;20673;-91
2022/01/11 02:56:27;;;;;;;13.93;10.13;;;;;;;-1.38;88.13;100748.88;4999364;28;20207;-91
2022/01/11 02:58:53;;;;;;;16.58;11.30;;;;;;;-1.41;88.21;100749.72;4999814;28;20676;-91
2022/01/11 03:01:18;;;;;;;13.50;9.47;;;;;;;-1.45;88.43;100744.59;5008720;28;20206;-91
2022/01/11 03:03:45;;;;;;;16.55;10.68;;;;;;;-1.49;88.12;100748.00;4988107;28;20207;-90
2022/01/11 03:06:11;;;;;;;25.92;12.15;;;;;;;-1.56;88.20;100747.13;5000744;28;20222;-91
2022/01/11 03:08:43;;;;;;;14.55;10.13;;;;;;;-1.62;88.14;100755.69;5007526;28;20207;-91
2022/01/11 03:11:13;;;;;;;31.38;10.40;;;;;;;-1.64;88.21;100757.38;4995966;28;20207;-91
2022/01/11 03:13:40;;;;;;;15.77;10.48;;;;;;;-1.66;88.16;100756.50;5007501;28;20207;-91
2022/01/11 03:16:06;;;;;;;19.13;12.10;;;;;;;-1.67;88.41;100759.94;4992864;28;20208;-91
2022/01/11 03:18:32;;;;;;;15.23;9.30;;;;;;;-1.66;88.22;100758.22;4987747;28;20631;-91
2022/01/11 03:20:58;;;;;;;13.20;11.80;;;;;;;-1.67;88.42;100762.53;4998795;28;20209;-92
2022/01/11 03:23:24;;;;;;;19.13;10.43;;;;;;;-1.67;88.17;100765.09;4990628;28;20203;-92
2022/01/11 03:25:52;;;;;;;18.45;10.15;;;;;;;-1.70;88.39;100759.94;4973199;28;20318;-91
2022/01/11 03:28:21;;;;;;;15.95;10.23;;;;;;;-1.75;88.52;100759.06;4983205;28;20238;-91
2022/01/11 03:30:48;;;;;;;13.68;8.25;;;;;;;-1.76;88.00;100754.72;4986187;28;20265;-92
2022/01/11 03:33:15;;;;;;;16.02;9.15;;;;;;;-1.76;88.38;100759.03;4990242;28;20226;-91
2022/01/11 03:35:44;;;;;;;18.33;9.85;;;;;;;-1.73;88.24;100762.47;4993282;28;20245;-91
2022/01/11 03:38:12;;;;;;;16.20;10.82;;;;;;;-1.71;88.47;100765.06;4980102;28;20206;-91
2022/01/11 03:40:39;;;;;;;15.85;10.05;;;;;;;-1.70;88.37;100762.50;4974805;28;20202;-91
2022/01/11 03:43:06;;;;;;;13.82;8.27;;;;;;;-1.70;88.29;100765.09;4987672;28;20709;-90
2022/01/11 03:45:33;;;;;;;11.77;8.65;;;;;;;-1.69;88.35;100776.25;4988591;28;20242;-91
2022/01/11 03:48:06;;;;;;;16.35;10.25;;;;;;;-1.69;88.20;100774.53;4979358;28;20214;-91
2022/01/11 03:50:32;;;;;;;15.43;9.75;;;;;;;-1.68;88.51;100780.53;4974251;28;20230;-91
2022/01/11 03:53:08;;;;;;;15.90;9.48;;;;;;;-1.67;88.21;100780.56;4984352;28;21145;-91
2022/01/11 03:56:09;;;;;;;16.73;9.02;;;;;;;-1.65;88.36;100778.81;4959495;28;20234;-92
2022/01/11 03:58:40;;;;;;;16.63;8.32;;;;;;;-1.66;87.89;100779.69;4971842;28;20731;-92
2022/01/11 04:01:06;;;;;;;17.53;10.07;;;;;;;-1.71;87.74;100783.97;4964207;28;20245;-91
2022/01/11 04:03:31;;;;;;;15.17;9.47;;;;;;;-1.76;87.71;100777.06;4975151;28;20683;-91
2022/01/11 04:06:00;;;;;;;16.58;8.35;;;;;;;-1.83;87.90;100771.88;4984081;28;20231;-93
2022/01/11 04:08:26;;;;;;;16.65;9.45;;;;;;;-1.86;87.75;100774.44;4993410;28;20207;-91
2022/01/11 04:10:52;;;;;;;14.68;8.70;;;;;;;-1.87;87.84;100779.56;4980320;28;20211;-92
2022/01/11 04:13:19;;;;;;;16.40;11.13;;;;;;;-1.86;88.01;100783.88;4990772;28;20253;-91
2022/01/11 04:15:44;;;;;;;16.65;8.75;;;;;;;-1.90;87.94;100783.00;4982308;28;20571;-91
2022/01/11 04:18:10;;;;;;;17.40;9.83;;;;;;;-1.90;87.96;100779.56;4977164;28;20211;-91
2022/01/11 04:20:37;;;;;;;12.20;7.93;;;;;;;-1.87;88.17;100788.16;4977734;28;20206;-92
2022/01/11 04:23:02;;;;;;;13.00;9.33;;;;;;;-1.87;87.95;100783.00;4972814;28;20203;-91
2022/01/11 04:25:28;;;;;;;18.40;11.63;;;;;;;-1.86;87.62;100778.75;4993472;28;20516;-92
2022/01/11 04:27:56;;;;;;;18.33;12.30;;;;;;;-1.86;87.74;100776.16;4981289;28;20246;-92
2022/01/11 04:30:22;;;;;;;12.67;9.13;;;;;;;-1.86;87.72;100783.88;4988562;28;20200;-91
2022/01/11 04:32:48;;;;;;;17.15;11.35;;;;;;;-1.89;87.39;100783.84;5001165;28;20364;-91
2022/01/11 04:35:17;;;;;;;14.40;10.77;;;;;;;-1.95;87.67;100782.09;4974056;28;20199;-92
2022/01/11 04:37:45;;;;;;;12.23;10.20;;;;;;;-1.96;87.47;100789.84;4972160;28;20211;-93
2022/01/11 04:40:11;;;;;;;20.58;11.35;;;;;;;-2.02;87.36;100791.50;4971872;28;20207;-92
2022/01/11 04:42:42;;;;;;;28.73;10.23;;;;;;;-2.06;87.90;100792.31;4970195;28;20231;-92
2022/01/11 04:45:11;;;;;;;21.08;10.20;;;;;;;-2.12;87.70;100792.28;4980126;28;20235;-92
2022/01/11 04:47:57;;;;;;;20.95;12.15;;;;;;;-2.16;87.97;100795.72;4972758;28;20207;-93
2022/01/11 04:50:26;;;;;;;16.15;11.32;;;;;;;-2.17;87.80;100790.53;4971056;28;20290;-93
2022/01/11 04:53:03;;;;;;;15.77;12.07;;;;;;;-2.16;88.22;100787.09;4980870;28;20211;-92
2022/01/11 04:55:32;;;;;;;15.85;10.95;;;;;;;-2.13;87.94;100787.13;4989210;28;20304;-92
2022/01/11 04:58:02;;;;;;;19.73;9.95;;;;;;;-2.09;88.19;100794.03;4991311;28;20499;-93
2022/01/11 05:00:34;;;;;;;19.63;10.82;;;;;;;-2.07;87.99;100790.63;4981324;28;20203;-93
2022/01/11 05:03:16;;;;;;;14.98;9.30;;;;;;;-2.08;87.94;100804.34;4979783;28;20218;-93
2022/01/11 05:05:43;;;;;;;21.38;10.68;;;;;;;-2.07;87.88;100790.63;4981977;28;20242;-92
2022/01/11 05:08:19;;;;;;;16.40;10.17;;;;;;;-2.06;88.18;100806.91;4970250;28;20567;-92
2022/01/11 05:10:47;;;;;;;17.08;11.02;;;;;;;-2.08;87.97;100806.03;4988628;28;20549;-92
2022/01/11 05:13:17;;;;;;;20.95;10.50;;;;;;;-2.07;87.86;100800.91;4976130;28;20199;-94
2022/01/11 05:15:59;;;;;;;16.20;10.75;;;;;;;-2.10;88.00;100798.31;4976424;28;20301;-92
2022/01/11 05:18:25;;;;;;;24.48;9.13;;;;;;;-2.10;87.73;100803.47;4988960;28;20214;-93
2022/01/11 05:20:50;;;;;;;15.17;9.93;;;;;;;-2.11;87.85;100808.59;4974447;28;20199;-94
2022/01/11 05:23:16;;;;;;;14.10;9.77;;;;;;;-2.11;87.66;100809.44;4992775;28;20975;-93
2022/01/11 05:25:43;;;;;;;15.90;10.68;;;;;;;-2.11;87.67;100806.88;4981413;28;20743;-93
2022/01/11 05:28:14;;;;;;;13.20;7.22;;;;;;;-2.14;87.88;100808.56;4991575;28;20234;-92
2022/01/11 05:30:45;;;;;;;13.77;9.27;;;;;;;-2.13;87.65;100810.28;4972734;28;20199;-92
2022/01/11 05:33:13;;;;;;;13.50;7.72;;;;;;;-2.10;87.70;100820.63;4972959;28;20269;-93
2022/01/11 05:35:39;;;;;;;15.87;10.10;;;;;;;-2.09;88.05;100812.91;4979725;28;20208;-93
2022/01/11 05:38:05;;;;;;;13.70;8.40;;;;;;;-2.05;87.76;100818.97;4953539;28;20544;-92
2022/01/11 05:40:31;;;;;;;9.00;7.80;;;;;;;-2.05;87.63;100816.38;4975255;28;20213;-93
2022/01/11 05:43:12;;;;;;;13.25;8.23;;;;;;;-2.04;87.74;100821.53;4980058;28;20473;-94
2022/01/11 05:45:40;;;;;;;12.30;8.23;;;;;;;-2.03;87.75;100827.53;4977730;28;20257;-93
2022/01/11 05:48:17;;;;;;;11.75;7.88;;;;;;;-2.05;87.42;100832.69;4973234;28;21134;-94
2022/01/11 05:51:14;;;;;;;12.43;9.05;;;;;;;-2.07;87.69;100834.38;4990635;28;20354;-93
2022/01/11 05:53:45;;;;;;;13.15;7.97;;;;;;;-2.07;87.92;100839.53;4983494;28;20664;-93
2022/01/11 06:03:42;;;;;;;12.45;7.38;;;;;;;-2.08;87.78;100855.84;4971847;28;20226;-94
2022/01/11 06:06:07;;;;;;;12.10;6.63;;;;;;;-2.08;87.87;100854.94;4953544;28;20219;-94
2022/01/11 06:08:34;;;;;;;14.43;8.95;;;;;;;-2.12;88.01;100859.22;4969431;28;20963;-93
2022/01/11 06:11:03;;;;;;;24.92;10.02;;;;;;;-2.14;88.03;100858.34;4985958;28;20217;-92
2022/01/11 06:13:33;;;;;;;18.73;9.93;;;;;;;-2.15;88.24;100864.34;4990070;28;20214;-93
2022/01/11 06:16:08;;;;;;;15.85;8.70;;;;;;;-2.16;88.52;100864.31;4973585;28;20783;-94
2022/01/11 06:18:37;;;;;;;24.25;7.68;;;;;;;-2.20;88.56;100868.59;4984010;28;20209;-95
2022/01/11 06:21:28;;;;;;;10.95;7.72;;;;;;;-2.21;88.66;100866.88;4988521;28;20287;-91
2022/01/11 06:23:55;;;;;;;18.27;8.18;;;;;;;-2.20;88.81;100871.16;4977803;28;20211;-93
2022/01/11 06:26:24;;;;;;;15.48;9.90;;;;;;;-2.20;88.89;100880.59;4987371;28;20245;-93
2022/01/11 06:28:49;;;;;;;17.67;9.52;;;;;;;-2.19;88.91;100869.44;5003285;28;20734;-94
2022/01/11 06:31:20;;;;;;;16.45;8.88;;;;;;;-2.18;89.28;100879.78;5000199;28;20821;-94
2022/01/11 06:33:56;;;;;;;16.77;10.60;;;;;;;-2.16;89.25;100883.22;4988693;28;20203;-94
2022/01/11 06:36:24;;;;;;;23.48;9.90;;;;;;;-2.17;89.06;100881.47;5003891;28;20207;-94
2022/01/11 06:38:53;;;;;;;17.52;9.73;;;;;;;-2.18;89.19;100889.22;5002239;28;20545;-93
2022/01/11 06:41:24;;;;;;;24.55;9.18;;;;;;;-2.19;89.47;100892.59;4987173;28;20230;-93
2022/01/11 06:43:54;;;;;;;17.43;9.33;;;;;;;-2.21;89.30;100890.03;4987424;28;20223;-93
2022/01/11 06:46:28;;;;;;;23.67;9.13;;;;;;;-2.21;89.98;100890.03;4994086;28;20214;-93
2022/01/11 06:49:00;;;;;;;25.17;10.68;;;;;;;-2.18;89.77;100899.50;4983612;28;20210;-93
2022/01/11 06:51:26;;;;;;;15.40;8.80;;;;;;;-2.15;89.83;100899.53;4987425;28;20317;-93
2022/01/11 06:53:56;;;;;;;27.40;10.77;;;;;;;-2.10;89.77;100908.16;4988863;28;20246;-93
2022/01/11 06:56:27;;;;;;;19.80;9.80;;;;;;;-2.06;89.95;100910.75;4987506;28;20211;-94
2022/01/11 06:59:03;;;;;;;16.55;8.90;;;;;;;-2.00;89.80;100917.66;4987033;28;20199;-94
2022/01/11 07:01:36;;;;;;;21.38;10.57;;;;;;;-1.96;90.10;100929.72;5003204;28;20658;-93
2022/01/11 07:04:12;;;;;;;25.80;10.07;;;;;;;-1.98;90.27;100925.41;5004589;28;20680;-94
2022/01/11 07:06:51;;;;;;;14.55;8.77;;;;;;;-1.98;90.29;100928.00;5008693;28;20217;-95
2022/01/11 07:09:19;;;;;;;21.30;11.07;;;;;;;-1.97;90.50;100932.28;5010727;28;20241;-93
2022/01/11 07:11:57;;;;;;;23.70;10.15;;;;;;;-1.95;90.36;100928.00;4993154;28;20206;-94
2022/01/11 07:14:25;;;;;;;17.27;9.77;;;;;;;-1.91;90.49;100942.66;5014800;28;20219;-94
2022/01/11 07:16:53;;;;;;;18.00;11.07;;;;;;;-1.83;90.43;100951.31;4993033;28;20724;-93
2022/01/11 07:19:20;;;;;;;13.10;8.43;;;;;;;-1.81;90.35;100950.47;4992072;28;21195;-94
2022/01/11 07:21:48;;;;;;;19.02;9.30;;;;;;;-1.76;90.43;100952.19;4998487;28;20262;-92
2022/01/11 07:24:18;;;;;;;14.85;9.70;;;;;;;-1.77;90.39;100959.06;4993503;28;20281;-92
2022/01/11 07:26:47;;;;;;;13.38;8.95;;;;;;;-1.77;90.04;100951.34;5003983;28;20270;-93
2022/01/11 07:29:18;;;;;;;18.45;11.57;;;;;;;-1.74;90.36;100959.09;5005148;28;20226;-93
2022/01/11 07:31:49;;;;;;;24.67;11.15;;;;;;;-1.67;90.40;100963.47;4995536;28;20984;-92
2022/01/11 07:34:17;;;;;;;22.02;11.95;;;;;;;-1.64;90.42;100960.91;5004183;28;20444;-92
2022/01/11 07:36:43;;;;;;;15.53;10.40;;;;;;;-1.62;90.55;100959.22;4990187;28;20697;-94
2022/01/11 07:39:27;;;;;;;14.88;8.98;;;;;;;-1.62;90.42;100951.47;4996549;28;20210;-93
2022/01/11 07:41:53;;;;;;;17.23;9.52;;;;;;;-1.61;90.23;100953.19;4972417;28;20223;-93
2022/01/11 07:45:00;;;;;;;19.17;11.40;;;;;;;-1.60;90.13;100957.47;4971539;28;20226;-92
2022/01/11 07:47:28;;;;;;;17.65;9.57;;;;;;;-1.58;90.39;100972.97;5001480;28;20211;-93
2022/01/11 07:49:53;;;;;;;14.87;10.23;;;;;;;-1.54;90.13;100976.41;5005225;28;20203;-94
2022/01/11 07:52:27;;;;;;;19.17;12.02;;;;;;;-1.50;90.31;100967.88;4993596;28;20638;-92
2022/01/11 07:54:58;;;;;;;20.10;10.80;;;;;;;-1.44;90.38;100965.34;4999333;28;20194;-92
2022/01/11 07:57:27;;;;;;;16.30;9.18;;;;;;;-1.39;89.97;100974.81;4986987;28;20273;-92
2022/01/11 07:59:56;;;;;;;16.13;9.30;;;;;;;-1.42;90.04;100971.38;4986330;28;20302;-91
2022/01/11 08:02:40;;;;;;;19.10;9.18;;;;;;;-1.41;90.20;100967.94;4983870;28;20250;-91
2022/01/11 08:05:09;;;;;;;13.00;7.90;;;;;;;-1.41;89.85;100973.09;4988094;28;20447;-91
2022/01/11 08:07:47;;;;;;;17.20;10.68;;;;;;;-1.46;89.85;100979.91;4984964;28;20216;-91
2022/01/11 08:10:28;;;;;;;21.02;10.10;;;;;;;-1.46;90.19;100985.06;4983727;28;20199;-91
2022/01/11 08:13:02;;;;;;;11.77;8.75;;;;;;;-1.44;89.88;100983.38;5001936;28;20249;-91
2022/01/11 08:15:34;;;;;;;16.70;9.10;;;;;;;-1.40;90.07;100990.28;4991354;28;20207;-91
2022/01/11 08:18:27;;;;;;;19.73;9.95;;;;;;;-1.37;89.85;100980.00;4983525;28;20222;-91
2022/01/11 08:21:23;;;;;;;17.15;10.50;;;;;;;-1.35;89.77;100983.44;4992824;28;20210;-90
2022/01/11 08:26:43;;;;;;;16.63;8.45;;;;;;;-1.32;89.78;100993.78;5002436;28;20231;-90
2022/01/11 08:29:20;;;;;;;13.90;8.90;;;;;;;-1.27;89.89;100996.38;4983264;28;20204;-90
2022/01/11 08:31:58;;;;;;;17.88;10.35;;;;;;;-1.22;89.64;100997.28;4996400;28;21023;-91
2022/01/11 08:34:27;;;;;;;12.57;8.00;;;;;;;-1.24;89.41;100989.53;4999495;28;20203;-90
2022/01/11 08:36:56;;;;;;;12.82;8.85;;;;;;;-1.22;89.52;100994.69;4994267;28;20228;-90
2022/01/11 08:39:26;;;;;;;19.27;10.07;;;;;;;-1.20;89.37;100987.84;4963489;28;20782;-90
2022/01/11 08:41:55;;;;;;;17.60;10.15;;;;;;;-1.16;89.58;100985.31;5003144;28;20689;-90
2022/01/11 08:44:24;;;;;;;13.23;9.10;;;;;;;-1.09;89.14;100993.06;4989770;28;20651;-91
2022/01/11 08:46:52;;;;;;;12.68;8.32;;;;;;;-1.02;89.53;100993.13;4983991;28;20389;-90
2022/01/11 08:49:44;;;;;;;16.17;9.27;;;;;;;-0.99;89.11;100992.28;4997484;28;20231;-91
2022/01/11 08:52:13;;;;;;;16.48;8.57;;;;;;;-0.97;88.81;100999.16;4983650;28;20684;-91
2022/01/11 08:54:40;;;;;;;12.68;8.43;;;;;;;-0.97;88.80;100995.75;5002593;28;20431;-90
2022/01/11 08:57:07;;;;;;;10.77;7.88;;;;;;;-0.97;88.86;100996.59;4969800;28;20233;-90
2022/01/11 08:59:35;;;;;;;10.17;6.60;;;;;;;-0.93;88.83;101007.78;4984692;28;20212;-90
2022/01/11 09:02:04;;;;;;;11.68;8.55;;;;;;;-0.93;88.48;101007.78;4978256;28;20210;-90
2022/01/11 09:04:31;;;;;;;14.90;8.65;;;;;;;-0.99;88.31;101000.88;4990160;28;20271;-89
2022/01/11 09:07:04;;;;;;;12.73;8.27;;;;;;;-1.04;88.20;101001.69;4983257;28;20350;-89
2022/01/11 09:09:32;;;;;;;12.40;8.70;;;;;;;-1.12;88.14;100999.06;4981621;28;20215;-91
2022/01/11 09:12:08;;;;;;;18.95;8.52;;;;;;;-1.13;88.45;100994.78;4983927;28;20705;-89
2022/01/11 09:14:47;;;;;;;;;;;;;;;;;;;;;
2022/01/11 09:17:25;;;;;;;17.13;9.15;;;;;;;-1.21;88.61;101010.19;4982141;28;20207;-90
2022/01/11 09:20:06;;;;;;;17.83;10.70;;;;;;;-1.27;88.67;101010.16;4986731;28;20207;-90
2022/01/11 09:22:32;;;;;;;13.02;8.15;;;;;;;-1.29;88.54;101004.13;4999051;28;20215;-90
2022/01/11 09:25:16;;;;;;;23.52;11.32;;;;;;;-1.28;88.68;101010.97;4999427;28;20255;-90
2022/01/11 09:27:52;;;;;;;38.88;11.90;;;;;;;-1.31;88.84;101010.97;4991973;28;20247;-90
2022/01/11 09:30:21;;;;;;;16.92;10.13;;;;;;;-1.29;88.54;100998.97;4988365;28;20206;-90
2022/01/11 09:32:55;;;;;;;21.27;11.32;;;;;;;-1.27;88.50;100994.69;5002105;28;20194;-90
2022/01/11 09:35:23;;;;;;;12.00;10.05;;;;;;;-1.24;88.40;101002.44;5009455;28;20271;-91
2022/01/11 09:37:56;;;;;;;17.17;11.25;;;;;;;-1.22;88.55;101000.72;5010501;28;20207;-90
2022/01/11 09:40:24;;;;;;;16.23;12.37;;;;;;;-1.17;88.66;100993.88;5021342;28;20241;-91
2022/01/11 09:43:01;;;;;;;14.68;9.85;;;;;;;-1.06;88.46;100998.25;5008626;28;21233;-90
2022/01/11 09:46:05;;;;;;;9.43;8.43;;;;;;;-0.99;88.31;100994.84;5003151;28;20439;-91
2022/01/11 09:48:35;;;;;;;19.77;9.73;;;;;;;-0.91;88.24;100999.19;4991353;28;20234;-90
2022/01/11 09:51:10;;;;;;;9.55;7.35;;;;;;;-0.86;88.27;100994.06;4998714;28;20616;-90
2022/01/11 09:53:46;;;;;;;22.30;9.75;;;;;;;-0.84;87.73;100997.50;4992339;28;20211;-91
2022/01/11 09:56:15;;;;;;;14.13;10.25;;;;;;;-0.78;87.91;101007.88;4999720;28;20230;-90
2022/01/11 09:58:46;;;;;;;13.17;9.30;;;;;;;-0.71;87.81;101007.03;4984404;28;20737;-91
2022/01/11 10:01:35;;;;;;;17.80;11.15;;;;;;;-0.61;87.70;101002.78;4979276;28;20460;-90
2022/01/11 10:04:13;;;;;;;16.27;10.15;;;;;;;-0.53;87.69;101007.97;4978842;28;20607;-89
2022/01/11 10:07:01;;;;;;;15.00;10.35;;;;;;;-0.49;87.58;101009.72;4983442;28;20242;-89
2022/01/11 10:09:32;;;;;;;14.93;9.15;;;;;;;-0.43;87.30;101007.19;5000759;28;20321;-90
2022/01/11 10:12:02;;;;;;;35.80;12.68;;;;;;;-0.39;87.23;101008.88;4983435;28;20213;-89
2022/01/11 10:14:37;;;;;;;19.23;10.57;;;;;;;-0.37;87.27;101009.75;4988686;28;20849;-89
2022/01/11 10:17:27;;;;;;;15.38;10.23;;;;;;;-0.35;87.00;101008.06;4983687;28;20894;-89
2022/01/11 10:20:10;;;;;;;19.80;10.07;;;;;;;-0.33;87.21;101008.06;4987655;28;20586;-89
2022/01/11 10:23:10;;;;;;;13.88;10.80;;;;;;;-0.35;87.23;101005.47;4993790;28;20861;-89
2022/01/11 10:25:50;;;;;;;17.73;10.38;;;;;;;-0.32;87.19;101013.22;4981577;28;20357;-89
2022/01/11 10:28:40;;;;;;;15.10;9.68;;;;;;;-0.29;86.89;101018.41;4971849;28;20801;-88
2022/01/11 10:31:15;;;;;;;21.13;12.25;;;;;;;-0.23;87.16;101008.09;4947194;28;20491;-89
2022/01/11 10:34:01;;;;;;;17.35;10.55;;;;;;;-0.21;87.32;101015.00;4967403;28;20549;-88
2022/01/11 10:36:46;;;;;;;20.77;12.27;;;;;;;-0.22;87.26;101021.84;4971372;28;20670;-88
2022/01/11 10:39:29;;;;;;;28.30;12.10;;;;;;;-0.31;87.43;101020.09;4963625;28;20679;-88
2022/01/11 10:41:57;;;;;;;17.67;10.65;;;;;;;-0.30;87.34;101013.22;4970491;28;20711;-88
2022/01/11 10:44:51;;;;;;;16.95;11.05;;;;;;;-0.27;87.26;101018.38;4985454;28;20841;-88
2022/01/11 10:47:25;;;;;;;31.52;12.85;;;;;;;-0.21;87.24;101017.56;4978652;28;20210;-90
2022/01/11 10:49:54;;;;;;;18.02;10.43;;;;;;;-0.18;87.43;101012.41;4970493;28;20487;-90
2022/01/11 10:52:31;;;;;;;15.40;9.43;;;;;;;-0.11;87.59;101016.72;4972510;28;20208;-91
2022/01/11 10:55:20;;;;;;;14.98;9.23;;;;;;;-0.07;87.25;101018.47;5002386;28;20393;-92
2022/01/11 10:58:05;;;;;;;40.97;13.68;;;;;;;-0.05;87.41;101017.63;4989604;28;20214;-94
2022/01/11 11:00:43;;;;;;;25.63;10.98;;;;;;;-0.06;87.74;101021.03;4993420;28;20117;-92
2022/01/11 11:03:22;;;;;;;20.25;10.35;;;;;;;-0.01;87.66;101018.47;4989368;28;20396;-92
2022/01/11 11:05:59;;;;;;;18.52;10.55;;;;;;;0.07;87.28;101013.31;4986447;28;20246;-91
2022/01/11 11:08:48;;;;;;;20.58;9.18;;;;;;;0.10;87.52;101001.25;4985619;28;20274;-92
2022/01/11 11:12:13;;;;;;;23.00;10.45;;;;;;;0.10;87.14;101009.00;4982499;28;20279;-92
2022/01/11 11:14:59;;;;;;;17.83;10.18;;;;;;;0.12;87.34;101004.72;4981241;28;20215;-91
2022/01/11 11:17:35;;;;;;;24.95;12.05;;;;;;;0.17;87.31;101003.00;4973998;28;20582;-93
2022/01/11 11:24:10;;;;;;;17.77;11.35;;;;;;;0.40;87.36;101005.59;4881151;29;20231;-94
2022/01/11 11:26:53;;;;;;;23.27;11.93;;;;;;;0.50;87.32;101003.88;4998141;28;20242;-94
2022/01/11 11:33:22;;;;;;;22.42;15.10;;;;;;;0.89;86.65;100999.53;4996301;28;21085;-92
2022/01/11 11:39:11;;;;;;;21.90;11.73;;;;;;;0.90;86.54;100995.25;4992545;28;20599;-92
2022/01/11 11:41:51;;;;;;;15.02;10.85;;;;;;;0.88;86.40;100995.25;4986927;28;20241;-93
2022/01/11 11:44:19;;;;;;;19.88;12.45;;;;;;;0.86;86.25;100994.38;4994407;28;20204;-91
2022/01/11 11:46:59;;;;;;;20.88;12.10;;;;;;;0.75;85.91;101001.28;4990113;28;20203;-90
2022/01/11 11:49:44;;;;;;;19.30;10.48;;;;;;;0.59;86.32;101001.28;4986077;28;20203;-93
2022/01/11 11:52:38;;;;;;;14.00;10.15;;;;;;;0.54;86.41;100995.28;4985521;28;20211;-91
2022/01/11 11:55:28;;;;;;;21.70;12.15;;;;;;;0.56;86.73;100993.53;5004071;28;20206;-91
2022/01/11 11:58:02;;;;;;;19.77;12.25;;;;;;;0.57;86.92;100987.53;4986432;28;20207;-90
2022/01/11 12:00:46;;;;;;;16.65;11.20;;;;;;;0.62;86.63;100980.63;5005913;28;20298;-92